Time;durP1;ratioP1;P1;durP2;ratioP2;P2;SDS_P1;SDS_P2;PMS_P1;PMS_P2;Temp;Humidity;BMP_temperature;BMP_pressure;BME280_temperature;BME280_humidity;BME280_pressure;Samples;Min_cycle;Max_cycle;Signal;HPM_P1;HPM_P2
2022/11/15 00:01:44;;;;;;;15.98;12.00;;;;;;;;;;5115736;28;20193;-67
2022/11/15 00:04:11;;;;;;;18.02;12.77;;;;;;;;;;5115260;28;20645;-68
2022/11/15 00:06:40;;;;;;;19.70;13.80;;;;;;;;;;5116464;28;20191;-68
2022/11/15 00:09:07;;;;;;;16.95;12.65;;;;;;;;;;5115476;28;20537;-68
2022/11/15 00:11:34;;;;;;;16.35;12.45;;;;;;;;;;5115637;28;20524;-69
2022/11/15 00:14:03;;;;;;;15.60;11.70;;;;;;;;;;5115336;28;20189;-68
2022/11/15 00:16:30;;;;;;;16.10;12.80;;;;;;;;;;5115138;28;20189;-68
2022/11/15 00:18:58;;;;;;;15.60;12.32;;;;;;;;;;5115264;28;20189;-68
2022/11/15 00:21:25;;;;;;;16.83;12.10;;;;;;;;;;5115200;28;20216;-68
2022/11/15 00:23:53;;;;;;;16.95;12.90;;;;;;;;;;5114832;28;20187;-69
2022/11/15 00:26:21;;;;;;;16.85;11.80;;;;;;;;;;5114873;28;20185;-69
2022/11/15 00:28:48;;;;;;;12.48;11.20;;;;;;;;;;5114794;28;20185;-68
2022/11/15 00:31:16;;;;;;;16.80;12.30;;;;;;;;;;5115234;28;20673;-68
2022/11/15 00:33:45;;;;;;;16.45;12.02;;;;;;;;;;5114917;28;20525;-68
2022/11/15 00:36:12;;;;;;;14.85;11.00;;;;;;;;;;5115045;28;20287;-68
2022/11/15 00:38:40;;;;;;;18.20;13.10;;;;;;;;;;5114588;28;20194;-68
2022/11/15 00:41:09;;;;;;;15.07;12.50;;;;;;;;;;5114400;28;20479;-68
2022/11/15 00:43:36;;;;;;;15.07;12.23;;;;;;;;;;5115065;28;20458;-68
2022/11/15 00:46:03;;;;;;;13.50;11.93;;;;;;;;;;5114747;28;20688;-68
2022/11/15 00:48:31;;;;;;;17.10;13.33;;;;;;;;;;5114475;28;20279;-68
2022/11/15 00:50:58;;;;;;;16.30;12.85;;;;;;;;;;5114615;28;20439;-68
2022/11/15 00:53:26;;;;;;;18.40;12.43;;;;;;;;;;5114431;28;20279;-68
2022/11/15 00:55:54;;;;;;;16.03;12.07;;;;;;;;;;5114348;28;20794;-68
2022/11/15 00:58:22;;;;;;;13.60;11.67;;;;;;;;;;5114590;28;20780;-68
2022/11/15 01:00:49;;;;;;;13.63;11.57;;;;;;;;;;5114388;28;20478;-68
2022/11/15 01:03:17;;;;;;;18.27;13.90;;;;;;;;;;5114243;28;20195;-68
2022/11/15 01:05:44;;;;;;;15.50;12.23;;;;;;;;;;5114420;28;20434;-68
2022/11/15 01:08:14;;;;;;;13.73;11.90;;;;;;;;;;5114436;28;20817;-68
2022/11/15 01:10:41;;;;;;;16.47;12.77;;;;;;;;;;5114481;28;20449;-68
2022/11/15 01:13:08;;;;;;;16.30;12.60;;;;;;;;;;5114576;28;20439;-68
2022/11/15 01:15:40;;;;;;;15.17;11.50;;;;;;;;;;5114415;28;20431;-68
2022/11/15 01:18:07;;;;;;;13.27;10.43;;;;;;;;;;5114688;28;20428;-68
2022/11/15 01:20:34;;;;;;;16.80;11.87;;;;;;;;;;5114226;28;20899;-68
2022/11/15 01:23:01;;;;;;;17.90;12.93;;;;;;;;;;5114246;28;20518;-68
2022/11/15 01:25:29;;;;;;;16.50;13.20;;;;;;;;;;5113823;28;20185;-67
2022/11/15 01:27:56;;;;;;;14.30;12.00;;;;;;;;;;5114587;28;20438;-68
2022/11/15 01:30:23;;;;;;;12.47;10.63;;;;;;;;;;5113656;28;20453;-68
2022/11/15 01:32:52;;;;;;;14.70;12.77;;;;;;;;;;5114893;28;20854;-67
2022/11/15 01:35:19;;;;;;;12.73;11.32;;;;;;;;;;5113705;28;20525;-68
2022/11/15 01:37:47;;;;;;;17.90;12.20;;;;;;;;;;5114035;28;20191;-67
2022/11/15 01:40:14;;;;;;;15.27;12.53;;;;;;;;;;5113569;28;20678;-67
2022/11/15 01:42:41;;;;;;;15.83;11.53;;;;;;;;;;5114235;28;20557;-67
2022/11/15 01:45:14;;;;;;;14.80;11.93;;;;;;;;;;5113594;28;20434;-68
2022/11/15 01:47:42;;;;;;;16.73;12.83;;;;;;;;;;5113843;28;20822;-67
2022/11/15 01:50:12;;;;;;;17.35;12.38;;;;;;;;;;5114469;28;20434;-68
2022/11/15 01:52:40;;;;;;;14.27;12.40;;;;;;;;;;5114461;28;20531;-67
2022/11/15 01:55:09;;;;;;;19.00;13.27;;;;;;;;;;5113929;28;20528;-68
2022/11/15 01:57:37;;;;;;;16.40;12.33;;;;;;;;;;5113529;28;20921;-67
2022/11/15 02:00:05;;;;;;;18.20;12.67;;;;;;;;;;5113695;28;20478;-67
2022/11/15 02:02:32;;;;;;;14.30;11.30;;;;;;;;;;5113638;28;20427;-67
2022/11/15 02:05:00;;;;;;;18.57;12.40;;;;;;;;;;5113423;28;20444;-67
2022/11/15 02:07:29;;;;;;;13.20;11.17;;;;;;;;;;5116751;28;20525;-67
2022/11/15 02:09:57;;;;;;;14.50;12.70;;;;;;;;;;5118112;28;20430;-69
2022/11/15 02:12:24;;;;;;;15.07;11.70;;;;;;;;;;5117427;28;20467;-68
2022/11/15 02:14:53;;;;;;;15.20;12.90;;;;;;;;;;5117733;28;20471;-69
2022/11/15 02:17:33;;;;;;;14.73;12.80;;;;;;;;;;5118259;28;20452;-67
2022/11/15 02:20:15;;;;;;;14.73;10.97;;;;;;;;;;5117251;28;20468;-68
2022/11/15 02:22:49;;;;;;;14.70;12.27;;;;;;;;;;5105155;27;20442;-69
2022/11/15 02:25:26;;;;;;;19.90;12.17;;;;;;;;;;5117620;28;20940;-69
2022/11/15 02:28:11;;;;;;;12.53;11.20;;;;;;;;;;5117372;28;20432;-68
2022/11/15 02:30:43;;;;;;;15.60;12.70;;;;;;;;;;5117899;28;20446;-68
2022/11/15 02:33:15;;;;;;;13.80;10.80;;;;;;;;;;5117842;28;20422;-67
2022/11/15 02:35:46;;;;;;;14.97;11.77;;;;;;;;;;5117765;28;20849;-68
2022/11/15 02:38:18;;;;;;;15.17;11.77;;;;;;;;;;5117405;28;20416;-67
2022/11/15 02:40:48;;;;;;;14.60;11.10;;;;;;;;;;5117496;28;20467;-68
2022/11/15 02:46:08;;;;;;;18.10;13.27;;;;;;;;;;5117093;28;20399;-68
2022/11/15 02:48:35;;;;;;;15.20;12.23;;;;;;;;;;5116972;28;20434;-67
2022/11/15 02:51:03;;;;;;;14.27;11.97;;;;;;;;;;5117248;28;20439;-67
2022/11/15 02:53:30;;;;;;;17.80;11.80;;;;;;;;;;5117111;28;20447;-68
2022/11/15 02:55:58;;;;;;;15.17;11.80;;;;;;;;;;5116950;28;20430;-68
2022/11/15 02:58:35;;;;;;;18.90;12.50;;;;;;;;;;5116621;28;20435;-67
2022/11/15 03:01:05;;;;;;;14.60;11.77;;;;;;;;;;5116828;28;20554;-68
2022/11/15 03:03:43;;;;;;;14.20;12.00;;;;;;;;;;5116583;28;20442;-68
2022/11/15 03:06:14;;;;;;;17.83;13.40;;;;;;;;;;5117113;28;20509;-68
2022/11/15 03:08:44;;;;;;;17.63;11.97;;;;;;;;;;5116797;28;20422;-67
2022/11/15 03:11:13;;;;;;;19.00;11.77;;;;;;;;;;5116617;28;20432;-67
2022/11/15 03:13:44;;;;;;;13.67;11.30;;;;;;;;;;5116673;28;20439;-69
2022/11/15 03:16:16;;;;;;;19.40;13.23;;;;;;;;;;5116632;28;20426;-68
2022/11/15 03:18:47;;;;;;;20.40;12.80;;;;;;;;;;5116118;28;20510;-68
2022/11/15 03:21:15;;;;;;;18.00;12.83;;;;;;;;;;5116411;28;20553;-68
2022/11/15 03:23:43;;;;;;;12.97;11.07;;;;;;;;;;5116181;28;20521;-68
2022/11/15 03:26:11;;;;;;;14.40;11.80;;;;;;;;;;5115989;28;20515;-68
2022/11/15 03:28:40;;;;;;;10.93;9.63;;;;;;;;;;5116509;28;20430;-68
2022/11/15 03:31:46;;;;;;;14.97;11.20;;;;;;;;;;5116219;28;20434;-68
2022/11/15 03:33:57;;;;;;;16.40;11.30;;;;;;;;;;5116168;28;20781;-67
2022/11/15 03:36:25;;;;;;;14.80;10.73;;;;;;;;;;5116258;28;20423;-68
2022/11/15 03:38:54;;;;;;;13.60;12.17;;;;;;;;;;5116179;28;20432;-67
2022/11/15 03:41:24;;;;;;;14.93;10.80;;;;;;;;;;5115970;28;20487;-68
2022/11/15 03:43:54;;;;;;;12.53;11.23;;;;;;;;;;5116643;28;20778;-67
2022/11/15 03:46:24;;;;;;;14.13;11.30;;;;;;;;;;5115741;28;20905;-68
2022/11/15 03:48:55;;;;;;;12.27;11.07;;;;;;;;;;5116131;28;20506;-67
2022/11/15 03:51:24;;;;;;;11.17;9.97;;;;;;;;;;5115646;28;20430;-67
2022/11/15 03:53:51;;;;;;;17.27;11.37;;;;;;;;;;5115614;28;20942;-67
2022/11/15 03:56:18;;;;;;;16.17;12.57;;;;;;;;;;5115764;28;20431;-69
2022/11/15 03:58:46;;;;;;;21.23;13.23;;;;;;;;;;5115502;28;20464;-68
2022/11/15 04:01:13;;;;;;;17.40;12.63;;;;;;;;;;5115661;28;20968;-68
2022/11/15 04:03:40;;;;;;;13.60;12.03;;;;;;;;;;5115721;28;20438;-68
2022/11/15 04:06:07;;;;;;;14.40;11.20;;;;;;;;;;5115549;28;20540;-67
2022/11/15 04:08:36;;;;;;;14.90;12.80;;;;;;;;;;5115482;28;20435;-68
2022/11/15 04:11:03;;;;;;;14.50;13.07;;;;;;;;;;5115520;28;20995;-68
2022/11/15 04:13:30;;;;;;;14.30;11.07;;;;;;;;;;5115434;28;20441;-68
2022/11/15 04:15:58;;;;;;;14.37;12.60;;;;;;;;;;5115646;28;20438;-67
2022/11/15 04:18:25;;;;;;;15.70;12.90;;;;;;;;;;5115050;28;20445;-68
2022/11/15 04:26:29;;;;;;;12.73;10.83;;;;;;;;;;5114881;28;20419;-67
2022/11/15 04:31:41;;;;;;;16.33;11.60;;;;;;;;;;5114850;28;20399;-67
2022/11/15 04:34:08;;;;;;;15.07;11.50;;;;;;;;;;5115196;28;20437;-67
2022/11/15 04:39:21;;;;;;;17.10;12.80;;;;;;;;;;5115123;28;20457;-67
2022/11/15 04:41:48;;;;;;;14.67;11.40;;;;;;;;;;5114746;28;20491;-66
2022/11/15 04:44:18;;;;;;;14.60;11.67;;;;;;;;;;5115368;28;20425;-66
2022/11/15 04:46:45;;;;;;;21.10;12.20;;;;;;;;;;5114839;28;20537;-66
2022/11/15 04:49:12;;;;;;;18.33;12.10;;;;;;;;;;5114667;28;20441;-65
2022/11/15 04:51:39;;;;;;;15.03;11.40;;;;;;;;;;5115089;28;20447;-66
2022/11/15 04:54:07;;;;;;;20.10;11.27;;;;;;;;;;5114857;28;20438;-66
2022/11/15 04:56:35;;;;;;;16.93;11.90;;;;;;;;;;5114924;28;20802;-65
2022/11/15 04:59:03;;;;;;;13.67;11.67;;;;;;;;;;5113093;28;20431;-66
2022/11/15 05:01:30;;;;;;;13.47;11.70;;;;;;;;;;5114056;28;20831;-66
2022/11/15 05:06:42;;;;;;;14.03;11.13;;;;;;;;;;5113987;28;20407;-66
2022/11/15 05:09:09;;;;;;;12.50;10.70;;;;;;;;;;5113603;28;20548;-66
2022/11/15 05:11:38;;;;;;;16.70;11.77;;;;;;;;;;5113540;28;20545;-66
2022/11/15 05:14:05;;;;;;;16.03;10.77;;;;;;;;;;5113825;28;20446;-67
2022/11/15 05:16:32;;;;;;;11.47;10.17;;;;;;;;;;5114164;28;20765;-66
2022/11/15 05:18:59;;;;;;;11.70;10.50;;;;;;;;;;5113839;28;20792;-67
2022/11/15 05:21:26;;;;;;;14.90;10.57;;;;;;;;;;5113468;28;20475;-67
2022/11/15 05:23:54;;;;;;;14.77;10.20;;;;;;;;;;5113708;28;20526;-66
2022/11/15 05:26:21;;;;;;;15.27;10.67;;;;;;;;;;5113724;28;20435;-66
2022/11/15 05:28:53;;;;;;;15.07;10.67;;;;;;;;;;5113348;28;20450;-66
2022/11/15 05:31:20;;;;;;;14.17;10.37;;;;;;;;;;5113661;28;20435;-66
2022/11/15 05:33:47;;;;;;;13.00;10.77;;;;;;;;;;5113676;28;20449;-66
2022/11/15 05:36:17;;;;;;;12.10;9.70;;;;;;;;;;5114100;28;20749;-66
2022/11/15 05:38:45;;;;;;;13.70;9.63;;;;;;;;;;5114444;28;20439;-66
2022/11/15 05:41:13;;;;;;;10.20;9.20;;;;;;;;;;5114289;28;20517;-66
2022/11/15 05:43:40;;;;;;;10.97;9.47;;;;;;;;;;5113532;27;20469;-66
2022/11/15 05:46:09;;;;;;;10.47;9.43;;;;;;;;;;5113953;28;20785;-66
2022/11/15 05:48:38;;;;;;;14.03;10.30;;;;;;;;;;5113866;28;20465;-66
2022/11/15 05:51:05;;;;;;;11.33;10.00;;;;;;;;;;5113519;28;20792;-66
2022/11/15 05:53:33;;;;;;;14.83;10.53;;;;;;;;;;5113334;28;20441;-66
2022/11/15 05:56:00;;;;;;;19.07;11.77;;;;;;;;;;5113947;28;20436;-67
2022/11/15 05:58:27;;;;;;;15.57;11.20;;;;;;;;;;5113969;28;20435;-66
2022/11/15 06:00:55;;;;;;;14.57;11.13;;;;;;;;;;5113749;28;20430;-67
2022/11/15 06:03:24;;;;;;;17.20;13.33;;;;;;;;;;5113434;28;20922;-66
2022/11/15 06:05:51;;;;;;;12.00;10.67;;;;;;;;;;5113823;28;20435;-66
2022/11/15 06:08:18;;;;;;;17.33;11.10;;;;;;;;;;5114005;28;20435;-69
2022/11/15 06:10:45;;;;;;;13.90;10.60;;;;;;;;;;5113323;28;20435;-67
2022/11/15 06:13:13;;;;;;;17.80;10.93;;;;;;;;;;5113819;28;20525;-67
2022/11/15 06:15:40;;;;;;;12.63;10.90;;;;;;;;;;5114406;28;20812;-66
2022/11/15 06:18:08;;;;;;;18.63;11.33;;;;;;;;;;5113648;28;20461;-67
2022/11/15 06:20:37;;;;;;;14.97;10.87;;;;;;;;;;5113505;28;20443;-67
2022/11/15 06:23:05;;;;;;;15.47;11.70;;;;;;;;;;5113410;28;20500;-67
2022/11/15 06:25:32;;;;;;;16.13;12.23;;;;;;;;;;5113458;28;20442;-67
2022/11/15 06:28:00;;;;;;;19.23;12.00;;;;;;;;;;5113424;28;20444;-67
2022/11/15 06:30:27;;;;;;;18.17;12.67;;;;;;;;;;5113812;28;20435;-67
2022/11/15 06:33:00;;;;;;;18.67;13.97;;;;;;;;;;5113441;28;20803;-67
2022/11/15 06:35:28;;;;;;;13.80;12.40;;;;;;;;;;5114206;28;20493;-67
2022/11/15 06:37:56;;;;;;;14.30;11.07;;;;;;;;;;5113099;28;20448;-67
2022/11/15 06:40:23;;;;;;;15.30;11.30;;;;;;;;;;5113323;28;20516;-67
2022/11/15 06:42:50;;;;;;;17.57;13.00;;;;;;;;;;5112979;28;20487;-67
2022/11/15 06:45:18;;;;;;;16.60;11.00;;;;;;;;;;5113757;28;20443;-67
2022/11/15 06:47:48;;;;;;;15.20;11.07;;;;;;;;;;5113019;28;20530;-67
2022/11/15 06:50:15;;;;;;;15.70;11.23;;;;;;;;;;5113276;28;20437;-66
2022/11/15 06:52:42;;;;;;;16.17;12.97;;;;;;;;;;5114692;28;20495;-67
2022/11/15 06:55:11;;;;;;;17.20;13.37;;;;;;;;;;5116999;28;20442;-67
2022/11/15 06:57:39;;;;;;;15.20;12.20;;;;;;;;;;5116562;28;20437;-67
2022/11/15 07:00:06;;;;;;;14.10;11.43;;;;;;;;;;5116981;28;20438;-67
2022/11/15 07:02:33;;;;;;;17.83;10.27;;;;;;;;;;5116484;28;20990;-67
2022/11/15 07:05:01;;;;;;;13.57;10.90;;;;;;;;;;5116835;28;20953;-68
2022/11/15 07:07:28;;;;;;;14.00;11.90;;;;;;;;;;5116705;27;20447;-67
2022/11/15 07:09:55;;;;;;;15.23;10.90;;;;;;;;;;5116666;28;20475;-66
2022/11/15 07:12:23;;;;;;;15.77;11.60;;;;;;;;;;5117017;28;20453;-67
2022/11/15 07:14:51;;;;;;;14.73;11.40;;;;;;;;;;5116516;28;20444;-67
2022/11/15 07:17:18;;;;;;;11.97;10.00;;;;;;;;;;5116862;28;20447;-67
2022/11/15 07:19:45;;;;;;;21.43;12.47;;;;;;;;;;5116495;28;20445;-67
2022/11/15 07:22:12;;;;;;;14.73;11.57;;;;;;;;;;5116573;28;20474;-66
2022/11/15 07:24:39;;;;;;;13.07;10.20;;;;;;;;;;5116001;28;20936;-66
2022/11/15 07:27:07;;;;;;;13.83;10.07;;;;;;;;;;5116313;28;20445;-67
2022/11/15 07:29:35;;;;;;;11.30;10.20;;;;;;;;;;5116508;28;20932;-67
2022/11/15 07:32:02;;;;;;;14.60;9.53;;;;;;;;;;5116485;28;20456;-67
2022/11/15 07:34:29;;;;;;;10.73;8.83;;;;;;;;;;5115786;28;20531;-66
2022/11/15 07:37:02;;;;;;;11.10;8.63;;;;;;;;;;5115880;28;20443;-67
2022/11/15 07:39:31;;;;;;;11.93;9.97;;;;;;;;;;5116218;28;20425;-67
2022/11/15 07:44:41;;;;;;;9.13;8.00;;;;;;;;;;5116064;28;20459;-67
2022/11/15 07:47:09;;;;;;;11.40;8.60;;;;;;;;;;5115968;28;20437;-66
2022/11/15 07:49:36;;;;;;;9.90;7.53;;;;;;;;;;5115485;28;20440;-66
2022/11/15 07:52:03;;;;;;;13.50;7.87;;;;;;;;;;5115895;28;20884;-68
2022/11/15 07:54:30;;;;;;;9.20;8.13;;;;;;;;;;5115844;28;20443;-67
2022/11/15 07:56:57;;;;;;;11.00;8.93;;;;;;;;;;5115842;28;20526;-68
2022/11/15 07:59:24;;;;;;;9.30;8.37;;;;;;;;;;5115302;28;20448;-67
2022/11/15 08:01:53;;;;;;;9.37;7.83;;;;;;;;;;5115810;28;20524;-68
2022/11/15 08:04:20;;;;;;;10.13;9.03;;;;;;;;;;5115191;28;21061;-67
2022/11/15 08:06:47;;;;;;;9.00;7.80;;;;;;;;;;5115603;28;20545;-66
2022/11/15 08:09:15;;;;;;;8.67;6.87;;;;;;;;;;5115812;28;20439;-66
2022/11/15 08:11:42;;;;;;;9.53;8.33;;;;;;;;;;5115596;28;20497;-67
2022/11/15 08:14:09;;;;;;;8.63;7.60;;;;;;;;;;5115400;28;20443;-68
2022/11/15 08:16:36;;;;;;;8.63;7.83;;;;;;;;;;5115327;28;20444;-67
2022/11/15 08:19:05;;;;;;;8.60;7.43;;;;;;;;;;5115683;28;20436;-67
2022/11/15 08:21:32;;;;;;;11.53;7.03;;;;;;;;;;5115129;28;20531;-68
2022/11/15 08:23:59;;;;;;;8.27;6.93;;;;;;;;;;5115195;28;20439;-67
2022/11/15 08:26:29;;;;;;;9.73;8.00;;;;;;;;;;5114804;28;20445;-69
2022/11/15 08:28:56;;;;;;;8.00;7.30;;;;;;;;;;5115588;28;20431;-67
2022/11/15 08:31:24;;;;;;;9.73;5.87;;;;;;;;;;5115223;28;20443;-67
2022/11/15 08:33:51;;;;;;;6.13;5.47;;;;;;;;;;5115250;28;20440;-67
2022/11/15 08:36:19;;;;;;;6.00;5.40;;;;;;;;;;5115003;28;20437;-67
2022/11/15 08:38:47;;;;;;;5.50;5.07;;;;;;;;;;5115168;28;20791;-67
2022/11/15 08:41:15;;;;;;;5.50;4.70;;;;;;;;;;5114849;28;20547;-67
2022/11/15 08:43:42;;;;;;;5.40;4.90;;;;;;;;;;5115680;28;20480;-67
2022/11/15 08:46:10;;;;;;;5.90;5.30;;;;;;;;;;5114414;28;20440;-67
2022/11/15 08:48:37;;;;;;;5.67;4.67;;;;;;;;;;5115007;28;20925;-67
2022/11/15 08:51:04;;;;;;;4.63;4.23;;;;;;;;;;5114468;28;20442;-67
2022/11/15 08:53:33;;;;;;;6.03;4.23;;;;;;;;;;5115030;28;20443;-67
2022/11/15 08:56:00;;;;;;;4.03;3.63;;;;;;;;;;5115059;27;20444;-67
2022/11/15 08:58:27;;;;;;;5.20;4.30;;;;;;;;;;5115150;28;20436;-67
2022/11/15 09:00:55;;;;;;;4.90;4.40;;;;;;;;;;5114456;28;20535;-67
2022/11/15 09:03:22;;;;;;;4.13;3.83;;;;;;;;;;5113923;28;20477;-67
2022/11/15 09:05:49;;;;;;;4.90;3.90;;;;;;;;;;5114846;28;20440;-67
2022/11/15 09:08:16;;;;;;;4.77;4.03;;;;;;;;;;5114175;28;20584;-68
2022/11/15 09:10:45;;;;;;;6.93;3.27;;;;;;;;;;5114176;28;20477;-67
2022/11/15 09:13:12;;;;;;;4.60;3.33;;;;;;;;;;5114060;28;20475;-67
2022/11/15 09:15:39;;;;;;;3.67;3.33;;;;;;;;;;5113467;28;21076;-67
2022/11/15 09:18:06;;;;;;;3.97;3.57;;;;;;;;;;5114540;28;20467;-67
2022/11/15 09:20:34;;;;;;;4.60;3.30;;;;;;;;;;5114463;28;20442;-67
2022/11/15 09:23:01;;;;;;;3.40;3.10;;;;;;;;;;5114246;28;20478;-67
2022/11/15 09:25:29;;;;;;;3.63;2.97;;;;;;;;;;5114408;28;20522;-67
2022/11/15 09:27:57;;;;;;;4.90;3.47;;;;;;;;;;5114185;28;20462;-66
2022/11/15 09:30:24;;;;;;;3.70;2.70;;;;;;;;;;5113743;28;20440;-66
2022/11/15 09:32:52;;;;;;;3.07;2.77;;;;;;;;;;5113956;28;20528;-67
2022/11/15 09:35:19;;;;;;;3.03;2.83;;;;;;;;;;5113708;28;20441;-66
2022/11/15 09:37:46;;;;;;;5.00;3.00;;;;;;;;;;5113589;28;20439;-66
2022/11/15 09:40:16;;;;;;;3.97;3.37;;;;;;;;;;5113569;28;20960;-66
2022/11/15 09:43:02;;;;;;;2.80;2.60;;;;;;;;;;5113864;28;20501;-66
2022/11/15 09:45:33;;;;;;;7.40;2.60;;;;;;;;;;5113868;28;20543;-66
2022/11/15 09:48:18;;;;;;;2.70;2.50;;;;;;;;;;5113829;28;20437;-66
2022/11/15 09:50:48;;;;;;;2.77;2.57;;;;;;;;;;5113506;28;20445;-67
2022/11/15 09:53:16;;;;;;;3.93;2.53;;;;;;;;;;5113496;28;20447;-66
2022/11/15 09:55:49;;;;;;;3.73;2.70;;;;;;;;;;5113725;28;20444;-67
2022/11/15 09:58:20;;;;;;;3.07;2.87;;;;;;;;;;5114329;28;20439;-68
2022/11/15 10:00:52;;;;;;;4.20;2.33;;;;;;;;;;5113493;28;20528;-67
2022/11/15 10:03:21;;;;;;;3.43;2.70;;;;;;;;;;5113396;28;20499;-67
2022/11/15 10:05:50;;;;;;;3.47;2.63;;;;;;;;;;5114410;28;20782;-67
2022/11/15 10:08:35;;;;;;;3.73;3.43;;;;;;;;;;5113625;28;20439;-68
2022/11/15 10:11:04;;;;;;;3.13;2.57;;;;;;;;;;5113395;28;20453;-67
2022/11/15 10:13:33;;;;;;;3.00;2.70;;;;;;;;;;5113808;28;20441;-67
2022/11/15 10:16:05;;;;;;;10.30;3.20;;;;;;;;;;5113735;28;20549;-67
2022/11/15 10:18:36;;;;;;;3.87;2.50;;;;;;;;;;5113729;28;20447;-67
2022/11/15 10:21:10;;;;;;;2.53;2.33;;;;;;;;;;5114215;28;20432;-67
2022/11/15 10:23:38;;;;;;;3.83;2.47;;;;;;;;;;5113449;28;20972;-67
2022/11/15 10:26:08;;;;;;;2.53;2.20;;;;;;;;;;5113672;28;20531;-67
2022/11/15 10:28:36;;;;;;;2.40;2.30;;;;;;;;;;5117099;28;20479;-66
2022/11/15 10:31:05;;;;;;;2.93;2.50;;;;;;;;;;5117135;28;20447;-67
2022/11/15 10:33:33;;;;;;;2.90;2.60;;;;;;;;;;5117396;28;20448;-67
2022/11/15 10:36:16;;;;;;;2.80;2.30;;;;;;;;;;5117591;28;20802;-68
2022/11/15 10:38:54;;;;;;;4.57;2.63;;;;;;;;;;5117438;28;20888;-67
2022/11/15 10:41:22;;;;;;;3.60;2.77;;;;;;;;;;5117195;28;20458;-67
2022/11/15 10:44:04;;;;;;;2.63;2.20;;;;;;;;;;5116661;28;20893;-67
2022/11/15 10:46:33;;;;;;;3.43;2.23;;;;;;;;;;5117435;28;20941;-67
2022/11/15 10:49:13;;;;;;;2.00;1.90;;;;;;;;;;5117227;28;20447;-67
2022/11/15 10:51:43;;;;;;;3.60;2.37;;;;;;;;;;5117006;28;20433;-67
2022/11/15 10:54:13;;;;;;;3.30;2.30;;;;;;;;;;5116734;28;20444;-67
2022/11/15 10:56:40;;;;;;;2.37;1.80;;;;;;;;;;5117015;28;20449;-67
2022/11/15 10:59:15;;;;;;;4.57;1.90;;;;;;;;;;5116937;28;20444;-68
2022/11/15 11:01:49;;;;;;;3.30;2.33;;;;;;;;;;5117192;28;20514;-67
2022/11/15 11:04:16;;;;;;;2.40;1.83;;;;;;;;;;5116918;28;20818;-67
2022/11/15 11:06:50;;;;;;;1.90;1.67;;;;;;;;;;5116746;28;20445;-67
2022/11/15 11:09:25;;;;;;;2.27;2.00;;;;;;;;;;5116938;28;20431;-67
2022/11/15 11:11:53;;;;;;;1.80;1.70;;;;;;;;;;5117005;28;20445;-67
2022/11/15 11:14:23;;;;;;;6.80;2.40;;;;;;;;;;5116705;28;20550;-67
2022/11/15 11:16:53;;;;;;;1.70;1.60;;;;;;;;;;5116822;28;20425;-67
2022/11/15 11:19:29;;;;;;;3.17;1.57;;;;;;;;;;5116782;28;20456;-66
2022/11/15 11:21:59;;;;;;;4.47;2.50;;;;;;;;;;5116623;28;20793;-67
2022/11/15 11:24:31;;;;;;;3.47;2.03;;;;;;;;;;5116834;28;20464;-67
2022/11/15 11:27:04;;;;;;;1.97;1.77;;;;;;;;;;5116266;28;20426;-67
2022/11/15 11:29:40;;;;;;;4.97;2.00;;;;;;;;;;5116283;28;20429;-67
2022/11/15 11:32:13;;;;;;;4.60;3.20;;;;;;;;;;5116612;28;20519;-67
2022/11/15 11:34:47;;;;;;;2.10;1.90;;;;;;;;;;5116433;28;20441;-67
2022/11/15 11:37:19;;;;;;;2.57;1.80;;;;;;;;;;5116683;28;20430;-67
2022/11/15 11:39:50;;;;;;;3.00;1.93;;;;;;;;;;5115304;28;20432;-67
2022/11/15 11:42:19;;;;;;;2.43;2.23;;;;;;;;;;5116127;28;20484;-67
2022/11/15 11:44:53;;;;;;;3.33;2.20;;;;;;;;;;5115998;28;20432;-67
2022/11/15 11:47:23;;;;;;;2.23;1.93;;;;;;;;;;5116731;28;20437;-66
2022/11/15 11:49:52;;;;;;;3.40;1.90;;;;;;;;;;5116010;28;20516;-67
2022/11/15 11:52:23;;;;;;;9.63;1.83;;;;;;;;;;5115752;28;20952;-67
2022/11/15 11:54:55;;;;;;;1.50;1.40;;;;;;;;;;5116142;28;20425;-67
2022/11/15 11:57:27;;;;;;;2.90;1.93;;;;;;;;;;5116158;28;20439;-66
2022/11/15 11:59:57;;;;;;;3.47;1.90;;;;;;;;;;5115523;28;20928;-67
2022/11/15 12:02:30;;;;;;;4.27;1.80;;;;;;;;;;5115773;28;20794;-67
2022/11/15 12:05:02;;;;;;;4.70;2.37;;;;;;;;;;5116298;28;20462;-67
2022/11/15 12:07:32;;;;;;;1.57;1.40;;;;;;;;;;5116106;28;20434;-67
2022/11/15 12:10:01;;;;;;;2.27;1.40;;;;;;;;;;5115896;28;20529;-67
2022/11/15 12:12:31;;;;;;;2.53;1.57;;;;;;;;;;5115721;28;20484;-66
2022/11/15 12:15:11;;;;;;;2.53;1.93;;;;;;;;;;5115495;28;20516;-67
2022/11/15 12:17:41;;;;;;;2.07;1.90;;;;;;;;;;5115220;28;20969;-67
2022/11/15 12:20:17;;;;;;;1.83;1.53;;;;;;;;;;5115480;28;20780;-67
2022/11/15 12:22:45;;;;;;;1.73;1.63;;;;;;;;;;5114920;28;20428;-67
2022/11/15 12:25:17;;;;;;;3.50;2.10;;;;;;;;;;5115200;28;20452;-67
2022/11/15 12:27:46;;;;;;;3.43;1.70;;;;;;;;;;5115227;28;20843;-67
2022/11/15 12:30:14;;;;;;;2.70;1.70;;;;;;;;;;5115168;28;20936;-67
2022/11/15 12:32:52;;;;;;;1.97;1.40;;;;;;;;;;5114823;28;20532;-67
2022/11/15 12:35:24;;;;;;;3.43;2.03;;;;;;;;;;5114905;28;20610;-67
2022/11/15 12:37:54;;;;;;;3.00;1.60;;;;;;;;;;5114796;28;20942;-68
2022/11/15 12:40:25;;;;;;;1.83;1.70;;;;;;;;;;5115065;28;20523;-67
2022/11/15 12:43:00;;;;;;;5.70;1.60;;;;;;;;;;5115059;28;20473;-68
2022/11/15 12:45:28;;;;;;;2.30;1.60;;;;;;;;;;5114833;28;20472;-67
2022/11/15 12:48:13;;;;;;;2.43;1.60;;;;;;;;;;5114534;28;20441;-67
2022/11/15 12:50:54;;;;;;;2.40;1.40;;;;;;;;;;5114603;28;20426;-68
2022/11/15 12:53:28;;;;;;;2.40;1.80;;;;;;;;;;5114946;28;20438;-68
2022/11/15 12:56:10;;;;;;;2.20;1.50;;;;;;;;;;5114777;28;20463;-66
2022/11/15 12:58:43;;;;;;;2.97;1.67;;;;;;;;;;5114906;28;20433;-66
2022/11/15 13:01:11;;;;;;;4.93;1.70;;;;;;;;;;5114570;28;20933;-66
2022/11/15 13:03:59;;;;;;;1.50;1.40;;;;;;;;;;5114005;28;21000;-66
2022/11/15 13:06:39;;;;;;;2.23;1.90;;;;;;;;;;5114479;28;20448;-66
2022/11/15 13:09:27;;;;;;;5.60;2.50;;;;;;;;;;5114521;28;20437;-67
2022/11/15 13:11:56;;;;;;;2.40;2.20;;;;;;;;;;5114503;28;20471;-67
2022/11/15 13:14:43;;;;;;;1.73;1.53;;;;;;;;;;5114660;28;20452;-67
2022/11/15 13:17:40;;;;;;;2.20;1.60;;;;;;;;;;5114165;28;20437;-67
2022/11/15 13:20:18;;;;;;;3.60;1.97;;;;;;;;;;5114459;28;20436;-67
2022/11/15 13:22:54;;;;;;;6.13;1.90;;;;;;;;;;5115138;28;20859;-67
2022/11/15 13:25:29;;;;;;;1.50;1.40;;;;;;;;;;5114643;28;20436;-67
2022/11/15 13:27:58;;;;;;;2.07;1.60;;;;;;;;;;5114864;28;20848;-66
2022/11/15 13:30:27;;;;;;;3.83;1.60;;;;;;;;;;5114205;28;20445;-66
2022/11/15 13:32:54;;;;;;;1.93;1.60;;;;;;;;;;5114448;28;20449;-67
2022/11/15 13:35:22;;;;;;;5.83;2.00;;;;;;;;;;5114189;28;20448;-67
2022/11/15 13:37:50;;;;;;;2.17;1.40;;;;;;;;;;5113888;28;20447;-67
2022/11/15 13:40:21;;;;;;;3.53;1.60;;;;;;;;;;5113671;28;20531;-67
2022/11/15 13:42:48;;;;;;;2.03;1.83;;;;;;;;;;5113841;28;20491;-66
2022/11/15 13:45:19;;;;;;;2.10;1.83;;;;;;;;;;5113991;28;20661;-67
2022/11/15 13:47:46;;;;;;;2.67;2.20;;;;;;;;;;5114507;28;20767;-67
2022/11/15 13:50:13;;;;;;;3.77;1.67;;;;;;;;;;5113934;28;20441;-67
2022/11/15 13:52:43;;;;;;;5.00;2.00;;;;;;;;;;5113737;28;20533;-67
2022/11/15 13:55:13;;;;;;;2.50;1.80;;;;;;;;;;5113428;28;20494;-67
2022/11/15 13:57:43;;;;;;;1.80;1.70;;;;;;;;;;5113848;28;20463;-68
2022/11/15 14:00:27;;;;;;;3.37;1.47;;;;;;;;;;5113948;28;20421;-65
2022/11/15 14:02:55;;;;;;;1.43;1.33;;;;;;;;;;5117879;28;20425;-65
2022/11/15 14:05:23;;;;;;;1.87;1.50;;;;;;;;;;5117796;28;20483;-65
2022/11/15 14:07:57;;;;;;;4.70;1.90;;;;;;;;;;5118586;28;20553;-67
2022/11/15 14:10:29;;;;;;;1.77;1.50;;;;;;;;;;5117929;28;20441;-66
2022/11/15 14:12:57;;;;;;;1.57;1.33;;;;;;;;;;5118005;28;20457;-67
2022/11/15 14:15:30;;;;;;;1.70;1.50;;;;;;;;;;5117352;28;20436;-67
2022/11/15 14:17:57;;;;;;;2.27;1.60;;;;;;;;;;5116822;28;20438;-67
2022/11/15 14:20:30;;;;;;;2.20;1.53;;;;;;;;;;5117090;28;20525;-67
2022/11/15 14:22:58;;;;;;;1.50;1.37;;;;;;;;;;5117306;28;20430;-67
2022/11/15 14:25:26;;;;;;;2.80;1.50;;;;;;;;;;5117468;28;20481;-67
2022/11/15 14:28:10;;;;;;;5.23;2.00;;;;;;;;;;5117087;28;20496;-67
2022/11/15 14:30:39;;;;;;;1.93;1.67;;;;;;;;;;5117177;28;20446;-67
2022/11/15 14:33:18;;;;;;;3.37;1.70;;;;;;;;;;5117269;28;20809;-67
2022/11/15 14:35:46;;;;;;;3.80;2.10;;;;;;;;;;5116947;28;20433;-67
2022/11/15 14:38:13;;;;;;;3.50;1.80;;;;;;;;;;5117479;28;20526;-67
2022/11/15 14:40:41;;;;;;;3.40;1.80;;;;;;;;;;5116704;28;20488;-67
2022/11/15 14:43:10;;;;;;;5.27;2.10;;;;;;;;;;5117233;28;20543;-67
2022/11/15 14:45:38;;;;;;;1.73;1.63;;;;;;;;;;5117057;28;20523;-67
2022/11/15 14:48:06;;;;;;;2.30;1.83;;;;;;;;;;5116581;28;20446;-67
2022/11/15 14:50:34;;;;;;;2.17;1.70;;;;;;;;;;5116880;28;20447;-66
2022/11/15 14:53:01;;;;;;;4.50;1.80;;;;;;;;;;5116857;28;20446;-67
2022/11/15 14:55:31;;;;;;;3.47;2.07;;;;;;;;;;5116841;28;20444;-67
2022/11/15 14:57:58;;;;;;;3.80;2.50;;;;;;;;;;5116863;28;20440;-67
2022/11/15 15:00:26;;;;;;;3.33;1.73;;;;;;;;;;5116366;28;20929;-67
2022/11/15 15:02:55;;;;;;;9.00;3.10;;;;;;;;;;5116348;28;20444;-68
2022/11/15 15:05:24;;;;;;;12.37;3.17;;;;;;;;;;5116437;28;20655;-67